sensor_id;sensor_type;location;lat;lon;timestamp;temperature;humidity
18815;DHT22;76351;44.818;20.462;2024-02-28T00:05:00;18.10;45.90
18815;DHT22;76351;44.818;20.462;2024-02-28T00:07:45;18.20;45.00
18815;DHT22;76351;44.818;20.462;2024-02-28T00:10:13;18.20;44.80
18815;DHT22;76351;44.818;20.462;2024-02-28T00:12:40;18.20;45.50
18815;DHT22;76351;44.818;20.462;2024-02-28T00:15:08;18.20;45.50
18815;DHT22;76351;44.818;20.462;2024-02-28T00:17:39;18.20;45.80
18815;DHT22;76351;44.818;20.462;2024-02-28T00:20:10;18.10;45.80
18815;DHT22;76351;44.818;20.462;2024-02-28T00:22:37;18.10;45.70
18815;DHT22;76351;44.818;20.462;2024-02-28T00:25:05;18.10;45.70
18815;DHT22;76351;44.818;20.462;2024-02-28T00:27:34;18.10;45.90
18815;DHT22;76351;44.818;20.462;2024-02-28T00:30:02;18.10;45.40
18815;DHT22;76351;44.818;20.462;2024-02-28T00:32:32;18.10;46.10
18815;DHT22;76351;44.818;20.462;2024-02-28T00:35:00;18.10;45.80
18815;DHT22;76351;44.818;20.462;2024-02-28T00:37:28;18.00;45.90
18815;DHT22;76351;44.818;20.462;2024-02-28T00:39:56;18.00;45.80
18815;DHT22;76351;44.818;20.462;2024-02-28T00:42:24;18.00;46.10
18815;DHT22;76351;44.818;20.462;2024-02-28T00:44:51;18.00;46.40
18815;DHT22;76351;44.818;20.462;2024-02-28T00:47:19;17.90;46.30
18815;DHT22;76351;44.818;20.462;2024-02-28T00:49:47;17.90;46.40
18815;DHT22;76351;44.818;20.462;2024-02-28T00:52:14;18.00;45.40
18815;DHT22;76351;44.818;20.462;2024-02-28T00:54:43;17.90;46.10
18815;DHT22;76351;44.818;20.462;2024-02-28T00:57:11;17.90;46.40
18815;DHT22;76351;44.818;20.462;2024-02-28T00:59:38;17.90;46.10
18815;DHT22;76351;44.818;20.462;2024-02-28T01:02:06;17.90;46.30
18815;DHT22;76351;44.818;20.462;2024-02-28T01:04:33;17.80;46.40
18815;DHT22;76351;44.818;20.462;2024-02-28T01:07:01;17.80;46.60
18815;DHT22;76351;44.818;20.462;2024-02-28T01:09:29;17.80;46.60
18815;DHT22;76351;44.818;20.462;2024-02-28T01:11:58;17.80;46.40
18815;DHT22;76351;44.818;20.462;2024-02-28T01:14:26;17.80;46.70
18815;DHT22;76351;44.818;20.462;2024-02-28T01:16:54;17.80;47.00
18815;DHT22;76351;44.818;20.462;2024-02-28T01:19:22;17.80;46.70
18815;DHT22;76351;44.818;20.462;2024-02-28T01:21:50;17.70;46.80
18815;DHT22;76351;44.818;20.462;2024-02-28T01:24:17;17.80;46.60
18815;DHT22;76351;44.818;20.462;2024-02-28T01:26:48;17.70;46.70
18815;DHT22;76351;44.818;20.462;2024-02-28T01:29:17;17.70;47.10
18815;DHT22;76351;44.818;20.462;2024-02-28T01:31:44;17.70;46.50
18815;DHT22;76351;44.818;20.462;2024-02-28T01:34:12;17.70;46.90
18815;DHT22;76351;44.818;20.462;2024-02-28T01:36:39;17.70;46.90
18815;DHT22;76351;44.818;20.462;2024-02-28T01:39:07;17.70;47.00
18815;DHT22;76351;44.818;20.462;2024-02-28T01:41:34;17.70;47.00
18815;DHT22;76351;44.818;20.462;2024-02-28T01:44:02;17.70;46.90
18815;DHT22;76351;44.818;20.462;2024-02-28T01:46:31;17.70;47.20
18815;DHT22;76351;44.818;20.462;2024-02-28T01:48:59;17.70;47.50
18815;DHT22;76351;44.818;20.462;2024-02-28T01:51:27;17.70;47.10
18815;DHT22;76351;44.818;20.462;2024-02-28T01:53:56;17.60;47.00
18815;DHT22;76351;44.818;20.462;2024-02-28T01:56:26;17.60;47.60
18815;DHT22;76351;44.818;20.462;2024-02-28T01:58:55;17.60;47.30
18815;DHT22;76351;44.818;20.462;2024-02-28T02:01:25;17.60;47.40
18815;DHT22;76351;44.818;20.462;2024-02-28T02:03:55;17.60;47.50
18815;DHT22;76351;44.818;20.462;2024-02-28T02:06:22;17.70;47.20
18815;DHT22;76351;44.818;20.462;2024-02-28T02:08:50;17.70;47.40
18815;DHT22;76351;44.818;20.462;2024-02-28T02:11:18;17.70;47.20
18815;DHT22;76351;44.818;20.462;2024-02-28T02:13:49;17.70;47.30
18815;DHT22;76351;44.818;20.462;2024-02-28T02:16:18;17.60;47.80
18815;DHT22;76351;44.818;20.462;2024-02-28T02:18:48;17.70;47.50
18815;DHT22;76351;44.818;20.462;2024-02-28T02:21:18;17.70;47.60
18815;DHT22;76351;44.818;20.462;2024-02-28T02:23:48;17.60;47.70
18815;DHT22;76351;44.818;20.462;2024-02-28T02:26:16;17.70;47.30
18815;DHT22;76351;44.818;20.462;2024-02-28T02:28:43;17.60;47.30
18815;DHT22;76351;44.818;20.462;2024-02-28T02:31:12;17.60;47.10
18815;DHT22;76351;44.818;20.462;2024-02-28T02:33:39;17.60;47.20
18815;DHT22;76351;44.818;20.462;2024-02-28T02:36:07;17.60;47.50
18815;DHT22;76351;44.818;20.462;2024-02-28T02:38:34;17.60;47.50
18815;DHT22;76351;44.818;20.462;2024-02-28T02:41:04;17.60;47.70
18815;DHT22;76351;44.818;20.462;2024-02-28T02:43:31;17.60;47.20
18815;DHT22;76351;44.818;20.462;2024-02-28T02:46:02;17.60;47.60
18815;DHT22;76351;44.818;20.462;2024-02-28T02:48:30;17.60;47.90
18815;DHT22;76351;44.818;20.462;2024-02-28T02:50:59;17.60;47.60
18815;DHT22;76351;44.818;20.462;2024-02-28T02:53:29;17.60;47.80
18815;DHT22;76351;44.818;20.462;2024-02-28T02:55:57;17.60;46.60
18815;DHT22;76351;44.818;20.462;2024-02-28T02:58:26;17.50;47.40
18815;DHT22;76351;44.818;20.462;2024-02-28T03:00:54;17.50;47.70
18815;DHT22;76351;44.818;20.462;2024-02-28T03:03:21;17.50;47.50
18815;DHT22;76351;44.818;20.462;2024-02-28T03:05:49;17.50;47.80
18815;DHT22;76351;44.818;20.462;2024-02-28T03:08:16;17.50;47.70
18815;DHT22;76351;44.818;20.462;2024-02-28T03:10:44;17.50;48.10
18815;DHT22;76351;44.818;20.462;2024-02-28T03:13:12;17.50;47.80
18815;DHT22;76351;44.818;20.462;2024-02-28T03:15:41;17.50;47.50
18815;DHT22;76351;44.818;20.462;2024-02-28T03:18:08;17.50;47.30
18815;DHT22;76351;44.818;20.462;2024-02-28T03:20:36;17.50;47.80
18815;DHT22;76351;44.818;20.462;2024-02-28T03:23:04;17.50;48.10
18815;DHT22;76351;44.818;20.462;2024-02-28T03:25:32;17.50;47.60
18815;DHT22;76351;44.818;20.462;2024-02-28T03:28:00;17.50;47.90
18815;DHT22;76351;44.818;20.462;2024-02-28T03:30:28;17.50;47.90
18815;DHT22;76351;44.818;20.462;2024-02-28T03:32:57;17.50;47.70
18815;DHT22;76351;44.818;20.462;2024-02-28T03:35:24;17.50;47.90
18815;DHT22;76351;44.818;20.462;2024-02-28T03:37:52;17.50;47.70
18815;DHT22;76351;44.818;20.462;2024-02-28T03:40:21;17.40;47.70
18815;DHT22;76351;44.818;20.462;2024-02-28T03:42:49;17.40;48.20
18815;DHT22;76351;44.818;20.462;2024-02-28T03:45:17;17.40;47.80
18815;DHT22;76351;44.818;20.462;2024-02-28T03:47:45;17.40;48.00
18815;DHT22;76351;44.818;20.462;2024-02-28T03:50:14;17.40;48.20
18815;DHT22;76351;44.818;20.462;2024-02-28T03:52:42;17.40;48.20
18815;DHT22;76351;44.818;20.462;2024-02-28T03:55:09;17.40;48.40
18815;DHT22;76351;44.818;20.462;2024-02-28T03:57:37;17.40;48.00
18815;DHT22;76351;44.818;20.462;2024-02-28T04:00:06;17.40;48.20
18815;DHT22;76351;44.818;20.462;2024-02-28T04:02:40;17.40;48.70
18815;DHT22;76351;44.818;20.462;2024-02-28T04:05:08;17.30;48.10
18815;DHT22;76351;44.818;20.462;2024-02-28T04:07:37;17.30;48.00
18815;DHT22;76351;44.818;20.462;2024-02-28T04:10:05;17.30;48.30
18815;DHT22;76351;44.818;20.462;2024-02-28T04:12:33;17.30;48.10
18815;DHT22;76351;44.818;20.462;2024-02-28T04:15:00;17.30;48.40
18815;DHT22;76351;44.818;20.462;2024-02-28T04:17:29;17.30;48.30
18815;DHT22;76351;44.818;20.462;2024-02-28T04:19:56;17.20;48.30
18815;DHT22;76351;44.818;20.462;2024-02-28T04:22:25;17.20;48.10
18815;DHT22;76351;44.818;20.462;2024-02-28T04:24:54;17.20;48.10
18815;DHT22;76351;44.818;20.462;2024-02-28T04:27:22;17.20;48.10
18815;DHT22;76351;44.818;20.462;2024-02-28T04:29:49;17.20;48.30
18815;DHT22;76351;44.818;20.462;2024-02-28T04:32:17;17.20;48.30
18815;DHT22;76351;44.818;20.462;2024-02-28T04:34:44;17.10;48.30
18815;DHT22;76351;44.818;20.462;2024-02-28T04:37:12;17.10;48.30
18815;DHT22;76351;44.818;20.462;2024-02-28T04:39:39;17.10;48.50
18815;DHT22;76351;44.818;20.462;2024-02-28T04:42:08;17.10;48.50
18815;DHT22;76351;44.818;20.462;2024-02-28T04:44:36;17.10;48.70
18815;DHT22;76351;44.818;20.462;2024-02-28T04:47:04;17.10;48.40
18815;DHT22;76351;44.818;20.462;2024-02-28T04:49:31;17.00;48.50
18815;DHT22;76351;44.818;20.462;2024-02-28T04:51:59;17.10;48.80
18815;DHT22;76351;44.818;20.462;2024-02-28T04:54:26;17.00;48.40
18815;DHT22;76351;44.818;20.462;2024-02-28T04:56:54;17.00;48.50
18815;DHT22;76351;44.818;20.462;2024-02-28T04:59:23;17.00;48.40
18815;DHT22;76351;44.818;20.462;2024-02-28T05:01:50;17.00;48.70
18815;DHT22;76351;44.818;20.462;2024-02-28T05:04:18;16.90;49.10
18815;DHT22;76351;44.818;20.462;2024-02-28T05:06:45;16.90;48.70
18815;DHT22;76351;44.818;20.462;2024-02-28T05:09:13;16.90;48.60
18815;DHT22;76351;44.818;20.462;2024-02-28T05:11:41;16.90;48.60
18815;DHT22;76351;44.818;20.462;2024-02-28T05:14:09;16.90;49.20
18815;DHT22;76351;44.818;20.462;2024-02-28T05:16:39;16.80;48.80
18815;DHT22;76351;44.818;20.462;2024-02-28T05:19:06;16.80;48.70
18815;DHT22;76351;44.818;20.462;2024-02-28T05:21:39;16.80;48.30
18815;DHT22;76351;44.818;20.462;2024-02-28T05:24:08;16.80;49.10
18815;DHT22;76351;44.818;20.462;2024-02-28T05:26:36;16.80;48.70
18815;DHT22;76351;44.818;20.462;2024-02-28T05:29:04;16.80;49.70
18815;DHT22;76351;44.818;20.462;2024-02-28T05:31:32;16.80;49.00
18815;DHT22;76351;44.818;20.462;2024-02-28T05:34:01;16.80;48.80
18815;DHT22;76351;44.818;20.462;2024-02-28T05:36:30;16.80;49.10
18815;DHT22;76351;44.818;20.462;2024-02-28T05:38:58;16.80;49.00
18815;DHT22;76351;44.818;20.462;2024-02-28T05:41:27;16.80;49.20
18815;DHT22;76351;44.818;20.462;2024-02-28T05:43:55;16.70;49.10
18815;DHT22;76351;44.818;20.462;2024-02-28T05:46:22;16.80;48.80
18815;DHT22;76351;44.818;20.462;2024-02-28T05:48:50;16.70;49.10
18815;DHT22;76351;44.818;20.462;2024-02-28T05:51:19;16.70;48.90
18815;DHT22;76351;44.818;20.462;2024-02-28T05:53:48;16.70;49.10
18815;DHT22;76351;44.818;20.462;2024-02-28T05:56:16;16.70;48.90
18815;DHT22;76351;44.818;20.462;2024-02-28T05:58:46;16.70;48.60
18815;DHT22;76351;44.818;20.462;2024-02-28T06:01:18;16.70;49.20
18815;DHT22;76351;44.818;20.462;2024-02-28T06:03:46;16.70;49.00
18815;DHT22;76351;44.818;20.462;2024-02-28T06:06:14;16.70;49.40
18815;DHT22;76351;44.818;20.462;2024-02-28T06:08:45;16.70;49.20
18815;DHT22;76351;44.818;20.462;2024-02-28T06:11:12;16.70;49.70
18815;DHT22;76351;44.818;20.462;2024-02-28T06:13:41;16.70;49.40
18815;DHT22;76351;44.818;20.462;2024-02-28T06:16:14;16.70;49.30
18815;DHT22;76351;44.818;20.462;2024-02-28T06:18:42;16.70;49.00
18815;DHT22;76351;44.818;20.462;2024-02-28T06:21:10;16.80;49.10
18815;DHT22;76351;44.818;20.462;2024-02-28T06:23:37;16.80;49.00
18815;DHT22;76351;44.818;20.462;2024-02-28T06:26:07;16.80;49.20
18815;DHT22;76351;44.818;20.462;2024-02-28T06:28:43;16.80;49.20
18815;DHT22;76351;44.818;20.462;2024-02-28T06:31:13;16.90;49.00
18815;DHT22;76351;44.818;20.462;2024-02-28T06:33:43;16.90;49.50
18815;DHT22;76351;44.818;20.462;2024-02-28T06:36:11;16.90;48.80
18815;DHT22;76351;44.818;20.462;2024-02-28T06:38:38;17.00;49.20
18815;DHT22;76351;44.818;20.462;2024-02-28T06:41:07;17.00;49.10
18815;DHT22;76351;44.818;20.462;2024-02-28T06:43:35;17.00;48.80
18815;DHT22;76351;44.818;20.462;2024-02-28T06:46:02;17.00;48.90
18815;DHT22;76351;44.818;20.462;2024-02-28T06:48:30;17.10;49.20
18815;DHT22;76351;44.818;20.462;2024-02-28T06:50:58;17.10;48.70
18815;DHT22;76351;44.818;20.462;2024-02-28T06:53:25;17.10;48.90
18815;DHT22;76351;44.818;20.462;2024-02-28T06:55:53;17.20;48.70
18815;DHT22;76351;44.818;20.462;2024-02-28T06:58:22;17.20;48.70
18815;DHT22;76351;44.818;20.462;2024-02-28T07:00:54;17.20;48.90
18815;DHT22;76351;44.818;20.462;2024-02-28T07:03:38;17.30;48.30
18815;DHT22;76351;44.818;20.462;2024-02-28T07:06:07;17.30;48.40
18815;DHT22;76351;44.818;20.462;2024-02-28T07:08:37;17.40;48.30
18815;DHT22;76351;44.818;20.462;2024-02-28T07:11:12;17.40;48.30
18815;DHT22;76351;44.818;20.462;2024-02-28T07:13:44;17.40;48.70
18815;DHT22;76351;44.818;20.462;2024-02-28T07:16:19;17.50;48.50
18815;DHT22;76351;44.818;20.462;2024-02-28T07:18:55;17.60;48.80
18815;DHT22;76351;44.818;20.462;2024-02-28T07:21:24;17.60;47.90
18815;DHT22;76351;44.818;20.462;2024-02-28T07:23:54;17.60;47.40
18815;DHT22;76351;44.818;20.462;2024-02-28T07:26:22;17.60;48.40
18815;DHT22;76351;44.818;20.462;2024-02-28T07:28:52;17.60;48.00
18815;DHT22;76351;44.818;20.462;2024-02-28T07:31:20;17.70;48.00
18815;DHT22;76351;44.818;20.462;2024-02-28T07:33:49;17.70;48.00
18815;DHT22;76351;44.818;20.462;2024-02-28T07:36:16;17.70;47.60
18815;DHT22;76351;44.818;20.462;2024-02-28T07:38:44;17.70;47.00
18815;DHT22;76351;44.818;20.462;2024-02-28T07:41:12;17.70;48.20
18815;DHT22;76351;44.818;20.462;2024-02-28T07:43:42;17.70;48.80
18815;DHT22;76351;44.818;20.462;2024-02-28T07:46:12;17.80;48.50
18815;DHT22;76351;44.818;20.462;2024-02-28T07:48:39;17.80;48.20
18815;DHT22;76351;44.818;20.462;2024-02-28T07:51:07;17.90;48.10
18815;DHT22;76351;44.818;20.462;2024-02-28T07:53:35;17.90;48.00
18815;DHT22;76351;44.818;20.462;2024-02-28T07:56:03;18.00;48.00
18815;DHT22;76351;44.818;20.462;2024-02-28T07:58:31;18.00;47.90
18815;DHT22;76351;44.818;20.462;2024-02-28T08:00:59;18.10;48.00
18815;DHT22;76351;44.818;20.462;2024-02-28T08:03:29;18.10;47.90
18815;DHT22;76351;44.818;20.462;2024-02-28T08:05:57;18.20;47.60
18815;DHT22;76351;44.818;20.462;2024-02-28T08:08:25;18.30;47.90
18815;DHT22;76351;44.818;20.462;2024-02-28T08:10:53;18.30;47.10
18815;DHT22;76351;44.818;20.462;2024-02-28T08:13:21;18.40;47.20
18815;DHT22;76351;44.818;20.462;2024-02-28T08:15:48;18.40;47.40
18815;DHT22;76351;44.818;20.462;2024-02-28T08:18:16;18.50;47.30
18815;DHT22;76351;44.818;20.462;2024-02-28T08:20:52;18.60;47.00
18815;DHT22;76351;44.818;20.462;2024-02-28T08:23:23;18.70;46.90
18815;DHT22;76351;44.818;20.462;2024-02-28T08:25:52;18.70;47.00
18815;DHT22;76351;44.818;20.462;2024-02-28T08:28:20;18.80;47.20
18815;DHT22;76351;44.818;20.462;2024-02-28T08:30:52;18.90;47.00
18815;DHT22;76351;44.818;20.462;2024-02-28T08:33:20;18.90;46.70
18815;DHT22;76351;44.818;20.462;2024-02-28T08:35:47;19.00;46.60
18815;DHT22;76351;44.818;20.462;2024-02-28T08:38:18;19.10;46.80
18815;DHT22;76351;44.818;20.462;2024-02-28T08:40:46;19.10;46.30
18815;DHT22;76351;44.818;20.462;2024-02-28T08:43:14;19.20;46.50
18815;DHT22;76351;44.818;20.462;2024-02-28T08:45:42;19.30;46.40
18815;DHT22;76351;44.818;20.462;2024-02-28T08:48:10;19.40;45.50
18815;DHT22;76351;44.818;20.462;2024-02-28T08:50:37;19.40;45.10
18815;DHT22;76351;44.818;20.462;2024-02-28T08:53:05;19.50;45.70
18815;DHT22;76351;44.818;20.462;2024-02-28T08:55:34;19.60;46.00
18815;DHT22;76351;44.818;20.462;2024-02-28T08:58:02;19.70;45.90
18815;DHT22;76351;44.818;20.462;2024-02-28T09:00:30;19.80;46.00
18815;DHT22;76351;44.818;20.462;2024-02-28T09:02:58;19.80;45.30
18815;DHT22;76351;44.818;20.462;2024-02-28T09:05:31;19.90;44.70
18815;DHT22;76351;44.818;20.462;2024-02-28T09:07:58;20.00;45.20
18815;DHT22;76351;44.818;20.462;2024-02-28T09:10:27;20.10;44.80
18815;DHT22;76351;44.818;20.462;2024-02-28T09:12:59;20.20;45.40
18815;DHT22;76351;44.818;20.462;2024-02-28T09:15:26;20.20;44.80
18815;DHT22;76351;44.818;20.462;2024-02-28T09:17:54;20.30;44.60
18815;DHT22;76351;44.818;20.462;2024-02-28T09:20:22;20.30;44.80
18815;DHT22;76351;44.818;20.462;2024-02-28T09:22:49;20.40;44.20
18815;DHT22;76351;44.818;20.462;2024-02-28T09:25:21;20.40;44.20
18815;DHT22;76351;44.818;20.462;2024-02-28T09:27:51;20.50;43.40
18815;DHT22;76351;44.818;20.462;2024-02-28T09:30:21;20.40;43.70
18815;DHT22;76351;44.818;20.462;2024-02-28T09:32:52;20.50;44.10
18815;DHT22;76351;44.818;20.462;2024-02-28T09:35:22;20.60;43.50
18815;DHT22;76351;44.818;20.462;2024-02-28T09:37:54;20.60;42.90
18815;DHT22;76351;44.818;20.462;2024-02-28T09:40:22;20.70;43.60
18815;DHT22;76351;44.818;20.462;2024-02-28T09:43:00;20.70;44.30
18815;DHT22;76351;44.818;20.462;2024-02-28T09:45:30;20.80;44.30
18815;DHT22;76351;44.818;20.462;2024-02-28T09:47:59;20.80;43.50
18815;DHT22;76351;44.818;20.462;2024-02-28T09:50:27;20.90;43.70
18815;DHT22;76351;44.818;20.462;2024-02-28T09:53:00;20.90;43.80
18815;DHT22;76351;44.818;20.462;2024-02-28T09:55:28;21.00;43.60
18815;DHT22;76351;44.818;20.462;2024-02-28T09:57:57;21.10;43.40
18815;DHT22;76351;44.818;20.462;2024-02-28T10:00:31;21.10;43.50
18815;DHT22;76351;44.818;20.462;2024-02-28T10:03:07;21.20;43.20
18815;DHT22;76351;44.818;20.462;2024-02-28T10:05:49;21.30;42.80
18815;DHT22;76351;44.818;20.462;2024-02-28T10:08:17;21.30;41.70
18815;DHT22;76351;44.818;20.462;2024-02-28T10:10:48;21.40;41.50
18815;DHT22;76351;44.818;20.462;2024-02-28T10:13:27;21.40;41.90
18815;DHT22;76351;44.818;20.462;2024-02-28T10:15:56;21.50;41.50
18815;DHT22;76351;44.818;20.462;2024-02-28T10:18:26;21.60;42.90
18815;DHT22;76351;44.818;20.462;2024-02-28T10:21:00;21.60;41.70
18815;DHT22;76351;44.818;20.462;2024-02-28T10:23:33;21.70;43.00
18815;DHT22;76351;44.818;20.462;2024-02-28T10:26:10;21.70;41.20
18815;DHT22;76351;44.818;20.462;2024-02-28T10:28:57;21.70;42.70
18815;DHT22;76351;44.818;20.462;2024-02-28T10:31:32;21.80;41.20
18815;DHT22;76351;44.818;20.462;2024-02-28T10:34:02;21.90;41.30
18815;DHT22;76351;44.818;20.462;2024-02-28T10:36:35;21.90;42.30
18815;DHT22;76351;44.818;20.462;2024-02-28T10:39:12;22.00;40.50
18815;DHT22;76351;44.818;20.462;2024-02-28T10:41:51;22.10;41.10
18815;DHT22;76351;44.818;20.462;2024-02-28T10:44:23;22.10;41.80
18815;DHT22;76351;44.818;20.462;2024-02-28T10:47:08;22.10;41.00
18815;DHT22;76351;44.818;20.462;2024-02-28T10:49:56;22.20;40.90
18815;DHT22;76351;44.818;20.462;2024-02-28T10:56:15;22.30;41.20
18815;DHT22;76351;44.818;20.462;2024-02-28T11:01:50;22.40;41.10
18815;DHT22;76351;44.818;20.462;2024-02-28T11:04:45;22.50;40.60
18815;DHT22;76351;44.818;20.462;2024-02-28T11:07:30;22.50;40.10
18815;DHT22;76351;44.818;20.462;2024-02-28T11:10:08;22.50;40.70
18815;DHT22;76351;44.818;20.462;2024-02-28T11:12:42;22.50;41.30
18815;DHT22;76351;44.818;20.462;2024-02-28T11:15:16;22.50;40.80
18815;DHT22;76351;44.818;20.462;2024-02-28T11:18:13;22.50;40.80
18815;DHT22;76351;44.818;20.462;2024-02-28T11:21:14;22.50;40.20
18815;DHT22;76351;44.818;20.462;2024-02-28T11:23:49;22.50;41.20
18815;DHT22;76351;44.818;20.462;2024-02-28T11:26:18;22.50;39.80
18815;DHT22;76351;44.818;20.462;2024-02-28T11:28:52;22.50;39.40
18815;DHT22;76351;44.818;20.462;2024-02-28T11:31:39;22.40;39.80
18815;DHT22;76351;44.818;20.462;2024-02-28T11:34:13;22.50;39.80
18815;DHT22;76351;44.818;20.462;2024-02-28T11:36:52;22.50;41.30
18815;DHT22;76351;44.818;20.462;2024-02-28T11:39:22;22.50;40.20
18815;DHT22;76351;44.818;20.462;2024-02-28T11:42:11;22.50;40.60
18815;DHT22;76351;44.818;20.462;2024-02-28T11:45:01;22.50;41.10
18815;DHT22;76351;44.818;20.462;2024-02-28T11:47:41;22.50;40.60
18815;DHT22;76351;44.818;20.462;2024-02-28T11:53:32;22.60;40.80
18815;DHT22;76351;44.818;20.462;2024-02-28T11:56:22;22.60;41.00
18815;DHT22;76351;44.818;20.462;2024-02-28T11:59:04;22.70;40.30
18815;DHT22;76351;44.818;20.462;2024-02-28T12:01:48;22.70;39.50
18815;DHT22;76351;44.818;20.462;2024-02-28T12:06:15;22.70;40.80
18815;DHT22;76351;44.818;20.462;2024-02-28T12:09:59;22.80;40.80
18815;DHT22;76351;44.818;20.462;2024-02-28T12:12:33;22.70;40.20
18815;DHT22;76351;44.818;20.462;2024-02-28T12:15:02;22.80;39.20
18815;DHT22;76351;44.818;20.462;2024-02-28T12:17:38;22.70;39.80
18815;DHT22;76351;44.818;20.462;2024-02-28T12:20:18;22.70;39.30
18815;DHT22;76351;44.818;20.462;2024-02-28T12:22:48;22.70;40.20
18815;DHT22;76351;44.818;20.462;2024-02-28T12:25:29;22.70;39.80
18815;DHT22;76351;44.818;20.462;2024-02-28T12:28:04;22.70;40.40
18815;DHT22;76351;44.818;20.462;2024-02-28T12:31:31;22.70;40.10
18815;DHT22;76351;44.818;20.462;2024-02-28T12:33:58;22.80;40.60
18815;DHT22;76351;44.818;20.462;2024-02-28T12:36:32;22.80;39.00
18815;DHT22;76351;44.818;20.462;2024-02-28T12:39:12;22.80;39.50
18815;DHT22;76351;44.818;20.462;2024-02-28T12:41:52;22.80;39.10
18815;DHT22;76351;44.818;20.462;2024-02-28T12:44:21;22.80;39.20
18815;DHT22;76351;44.818;20.462;2024-02-28T12:47:23;22.80;39.20
18815;DHT22;76351;44.818;20.462;2024-02-28T12:50:08;22.80;39.20
18815;DHT22;76351;44.818;20.462;2024-02-28T12:52:47;22.80;40.50
18815;DHT22;76351;44.818;20.462;2024-02-28T12:55:32;22.80;39.00
18815;DHT22;76351;44.818;20.462;2024-02-28T12:58:16;22.70;40.00
18815;DHT22;76351;44.818;20.462;2024-02-28T13:01:04;22.70;40.50
18815;DHT22;76351;44.818;20.462;2024-02-28T13:03:52;22.70;40.30
18815;DHT22;76351;44.818;20.462;2024-02-28T13:06:26;22.70;40.80
18815;DHT22;76351;44.818;20.462;2024-02-28T13:08:55;22.80;39.10
18815;DHT22;76351;44.818;20.462;2024-02-28T13:11:29;22.80;39.50
18815;DHT22;76351;44.818;20.462;2024-02-28T13:14:03;22.80;39.70
18815;DHT22;76351;44.818;20.462;2024-02-28T13:16:40;22.80;39.40
18815;DHT22;76351;44.818;20.462;2024-02-28T13:19:14;22.80;39.10
18815;DHT22;76351;44.818;20.462;2024-02-28T13:21:48;22.80;39.90
18815;DHT22;76351;44.818;20.462;2024-02-28T13:24:17;22.80;38.90
18815;DHT22;76351;44.818;20.462;2024-02-28T13:26:50;22.80;39.10
18815;DHT22;76351;44.818;20.462;2024-02-28T13:29:29;22.70;39.60
18815;DHT22;76351;44.818;20.462;2024-02-28T13:32:02;22.80;40.00
18815;DHT22;76351;44.818;20.462;2024-02-28T13:34:29;22.80;40.50
18815;DHT22;76351;44.818;20.462;2024-02-28T13:36:59;22.80;40.20
18815;DHT22;76351;44.818;20.462;2024-02-28T13:39:27;22.80;40.50
18815;DHT22;76351;44.818;20.462;2024-02-28T13:42:01;22.80;39.70
18815;DHT22;76351;44.818;20.462;2024-02-28T13:44:41;22.80;39.20
18815;DHT22;76351;44.818;20.462;2024-02-28T13:47:22;22.90;38.50
18815;DHT22;76351;44.818;20.462;2024-02-28T13:49:56;22.90;40.20
18815;DHT22;76351;44.818;20.462;2024-02-28T13:52:25;23.00;39.50
18815;DHT22;76351;44.818;20.462;2024-02-28T13:54:55;23.00;39.50
18815;DHT22;76351;44.818;20.462;2024-02-28T13:57:27;23.00;39.90
18815;DHT22;76351;44.818;20.462;2024-02-28T14:00:22;23.10;39.80
18815;DHT22;76351;44.818;20.462;2024-02-28T14:02:56;23.10;40.30
18815;DHT22;76351;44.818;20.462;2024-02-28T14:05:47;23.20;39.60
18815;DHT22;76351;44.818;20.462;2024-02-28T14:08:25;23.20;40.10
18815;DHT22;76351;44.818;20.462;2024-02-28T14:11:09;23.20;38.60
18815;DHT22;76351;44.818;20.462;2024-02-28T14:17:11;23.30;39.40
18815;DHT22;76351;44.818;20.462;2024-02-28T14:19:55;23.30;38.50
18815;DHT22;76351;44.818;20.462;2024-02-28T14:24:06;23.30;39.10
18815;DHT22;76351;44.818;20.462;2024-02-28T14:28:21;23.20;38.90
18815;DHT22;76351;44.818;20.462;2024-02-28T14:30:23;23.20;38.70
18815;DHT22;76351;44.818;20.462;2024-02-28T14:33:01;23.10;39.00
18815;DHT22;76351;44.818;20.462;2024-02-28T14:35:29;23.10;40.00
18815;DHT22;76351;44.818;20.462;2024-02-28T14:38:18;23.10;39.10
18815;DHT22;76351;44.818;20.462;2024-02-28T14:40:55;23.00;40.00
18815;DHT22;76351;44.818;20.462;2024-02-28T14:43:26;23.00;39.80
18815;DHT22;76351;44.818;20.462;2024-02-28T14:45:57;23.00;39.50
18815;DHT22;76351;44.818;20.462;2024-02-28T14:48:27;23.00;39.00
18815;DHT22;76351;44.818;20.462;2024-02-28T14:50:56;23.00;39.10
18815;DHT22;76351;44.818;20.462;2024-02-28T14:53:51;23.00;39.70
18815;DHT22;76351;44.818;20.462;2024-02-28T14:56:22;23.00;39.00
18815;DHT22;76351;44.818;20.462;2024-02-28T14:59:14;23.00;39.10
18815;DHT22;76351;44.818;20.462;2024-02-28T15:01:58;23.00;38.60
18815;DHT22;76351;44.818;20.462;2024-02-28T15:04:27;22.90;38.70
18815;DHT22;76351;44.818;20.462;2024-02-28T15:07:23;22.90;39.10
18815;DHT22;76351;44.818;20.462;2024-02-28T15:09:56;22.90;39.70
18815;DHT22;76351;44.818;20.462;2024-02-28T15:12:34;22.80;39.70
18815;DHT22;76351;44.818;20.462;2024-02-28T15:15:07;22.80;39.00
18815;DHT22;76351;44.818;20.462;2024-02-28T15:17:35;22.80;39.20
18815;DHT22;76351;44.818;20.462;2024-02-28T15:20:06;22.70;39.00
18815;DHT22;76351;44.818;20.462;2024-02-28T15:22:34;22.70;40.20
18815;DHT22;76351;44.818;20.462;2024-02-28T15:25:05;22.70;39.00
18815;DHT22;76351;44.818;20.462;2024-02-28T15:27:38;22.60;39.50
18815;DHT22;76351;44.818;20.462;2024-02-28T15:30:17;22.60;40.30
18815;DHT22;76351;44.818;20.462;2024-02-28T15:33:20;22.60;39.30
18815;DHT22;76351;44.818;20.462;2024-02-28T15:35:57;22.50;38.90
18815;DHT22;76351;44.818;20.462;2024-02-28T15:38:32;22.50;39.20
18815;DHT22;76351;44.818;20.462;2024-02-28T15:41:02;22.40;39.30
18815;DHT22;76351;44.818;20.462;2024-02-28T15:43:35;22.40;39.20
18815;DHT22;76351;44.818;20.462;2024-02-28T15:46:27;22.30;39.70
18815;DHT22;76351;44.818;20.462;2024-02-28T15:53:09;22.20;39.80
18815;DHT22;76351;44.818;20.462;2024-02-28T15:56:03;22.10;39.30
18815;DHT22;76351;44.818;20.462;2024-02-28T15:58:39;22.10;40.40
18815;DHT22;76351;44.818;20.462;2024-02-28T16:01:54;22.00;38.80
18815;DHT22;76351;44.818;20.462;2024-02-28T16:04:35;21.90;39.80
18815;DHT22;76351;44.818;20.462;2024-02-28T16:07:08;21.90;39.90
18815;DHT22;76351;44.818;20.462;2024-02-28T16:09:53;21.80;40.10
18815;DHT22;76351;44.818;20.462;2024-02-28T16:12:36;21.80;39.20